sensor_id;sensor_type;location;lat;lon;timestamp;P1;durP1;ratioP1;P2;durP2;ratioP2
63567;SDS011;49715;42.386;20.434;2022-11-15T00:00:55;94.93;;;61.58;;
63567;SDS011;49715;42.386;20.434;2022-11-15T00:03:40;92.03;;;57.92;;
63567;SDS011;49715;42.386;20.434;2022-11-15T00:06:25;87.13;;;56.45;;
63567;SDS011;49715;42.386;20.434;2022-11-15T00:09:10;91.82;;;55.85;;
63567;SDS011;49715;42.386;20.434;2022-11-15T00:11:56;85.00;;;55.22;;
63567;SDS011;49715;42.386;20.434;2022-11-15T00:14:41;86.47;;;54.35;;
63567;SDS011;49715;42.386;20.434;2022-11-15T00:17:26;83.30;;;53.67;;
63567;SDS011;49715;42.386;20.434;2022-11-15T00:20:11;85.97;;;53.17;;
63567;SDS011;49715;42.386;20.434;2022-11-15T00:22:56;83.95;;;54.53;;
63567;SDS011;49715;42.386;20.434;2022-11-15T00:25:41;80.47;;;52.45;;
63567;SDS011;49715;42.386;20.434;2022-11-15T00:28:26;88.07;;;53.53;;
63567;SDS011;49715;42.386;20.434;2022-11-15T00:31:12;75.28;;;51.38;;
63567;SDS011;49715;42.386;20.434;2022-11-15T00:33:57;83.32;;;51.65;;
63567;SDS011;49715;42.386;20.434;2022-11-15T00:36:42;79.30;;;50.15;;
63567;SDS011;49715;42.386;20.434;2022-11-15T00:39:27;77.10;;;48.70;;
63567;SDS011;49715;42.386;20.434;2022-11-15T00:42:12;71.03;;;47.13;;
63567;SDS011;49715;42.386;20.434;2022-11-15T00:44:56;73.45;;;47.45;;
63567;SDS011;49715;42.386;20.434;2022-11-15T00:47:44;71.18;;;47.95;;
63567;SDS011;49715;42.386;20.434;2022-11-15T00:50:30;68.13;;;47.22;;
63567;SDS011;49715;42.386;20.434;2022-11-15T00:53:15;79.25;;;48.50;;
63567;SDS011;49715;42.386;20.434;2022-11-15T00:56:01;74.15;;;48.33;;
63567;SDS011;49715;42.386;20.434;2022-11-15T00:58:46;75.82;;;47.70;;
63567;SDS011;49715;42.386;20.434;2022-11-15T01:01:31;76.75;;;48.08;;
63567;SDS011;49715;42.386;20.434;2022-11-15T01:04:15;78.78;;;48.67;;
63567;SDS011;49715;42.386;20.434;2022-11-15T01:07:00;82.32;;;49.75;;
63567;SDS011;49715;42.386;20.434;2022-11-15T01:09:45;84.30;;;51.08;;
63567;SDS011;49715;42.386;20.434;2022-11-15T01:12:30;73.20;;;47.70;;
63567;SDS011;49715;42.386;20.434;2022-11-15T01:15:16;68.23;;;44.40;;
63567;SDS011;49715;42.386;20.434;2022-11-15T01:18:01;74.55;;;48.78;;
63567;SDS011;49715;42.386;20.434;2022-11-15T01:20:46;80.28;;;53.03;;
63567;SDS011;49715;42.386;20.434;2022-11-15T01:23:31;93.05;;;53.35;;
63567;SDS011;49715;42.386;20.434;2022-11-15T01:26:16;79.78;;;51.65;;
63567;SDS011;49715;42.386;20.434;2022-11-15T01:29:01;82.85;;;49.65;;
63567;SDS011;49715;42.386;20.434;2022-11-15T01:31:46;77.35;;;50.55;;
63567;SDS011;49715;42.386;20.434;2022-11-15T01:34:30;83.35;;;48.72;;
63567;SDS011;49715;42.386;20.434;2022-11-15T01:37:15;75.85;;;47.72;;
63567;SDS011;49715;42.386;20.434;2022-11-15T01:40:00;78.78;;;48.40;;
63567;SDS011;49715;42.386;20.434;2022-11-15T01:42:45;78.10;;;47.17;;
63567;SDS011;49715;42.386;20.434;2022-11-15T01:45:30;70.47;;;46.67;;
63567;SDS011;49715;42.386;20.434;2022-11-15T01:48:15;76.78;;;48.55;;
63567;SDS011;49715;42.386;20.434;2022-11-15T01:51:01;70.82;;;44.63;;
63567;SDS011;49715;42.386;20.434;2022-11-15T01:53:52;77.85;;;46.58;;
63567;SDS011;49715;42.386;20.434;2022-11-15T01:56:42;63.78;;;45.03;;
63567;SDS011;49715;42.386;20.434;2022-11-15T01:59:30;62.65;;;44.10;;
63567;SDS011;49715;42.386;20.434;2022-11-15T02:02:15;59.30;;;43.30;;
63567;SDS011;49715;42.386;20.434;2022-11-15T02:05:00;59.45;;;42.35;;
63567;SDS011;49715;42.386;20.434;2022-11-15T02:07:45;62.42;;;40.45;;
63567;SDS011;49715;42.386;20.434;2022-11-15T02:10:31;58.55;;;40.92;;
63567;SDS011;49715;42.386;20.434;2022-11-15T02:13:16;61.47;;;40.58;;
63567;SDS011;49715;42.386;20.434;2022-11-15T02:34:54;69.57;;;41.00;;
63567;SDS011;49715;42.386;20.434;2022-11-15T02:37:55;58.97;;;40.45;;
63567;SDS011;49715;42.386;20.434;2022-11-15T02:40:45;64.60;;;40.63;;
63567;SDS011;49715;42.386;20.434;2022-11-15T02:47:06;58.90;;;39.22;;
63567;SDS011;49715;42.386;20.434;2022-11-15T02:49:58;66.07;;;41.22;;
63567;SDS011;49715;42.386;20.434;2022-11-15T02:52:55;68.22;;;42.63;;
63567;SDS011;49715;42.386;20.434;2022-11-15T02:55:58;71.65;;;44.55;;
63567;SDS011;49715;42.386;20.434;2022-11-15T03:07:54;58.10;;;41.00;;
63567;SDS011;49715;42.386;20.434;2022-11-15T03:13:59;59.03;;;40.88;;
63567;SDS011;49715;42.386;20.434;2022-11-15T03:20:13;66.30;;;41.13;;
63567;SDS011;49715;42.386;20.434;2022-11-15T03:23:03;65.00;;;41.25;;
63567;SDS011;49715;42.386;20.434;2022-11-15T03:25:51;61.50;;;42.55;;
63567;SDS011;49715;42.386;20.434;2022-11-15T03:28:42;66.25;;;40.88;;
63567;SDS011;49715;42.386;20.434;2022-11-15T03:31:34;60.07;;;39.80;;
63567;SDS011;49715;42.386;20.434;2022-11-15T03:34:44;65.00;;;39.58;;
63567;SDS011;49715;42.386;20.434;2022-11-15T03:46:32;96.00;;;59.55;;
63567;SDS011;49715;42.386;20.434;2022-11-15T03:49:26;72.53;;;50.35;;
63567;SDS011;49715;42.386;20.434;2022-11-15T03:52:16;79.90;;;51.85;;
63567;SDS011;49715;42.386;20.434;2022-11-15T03:55:03;77.20;;;49.47;;
63567;SDS011;49715;42.386;20.434;2022-11-15T03:57:52;77.68;;;50.75;;
63567;SDS011;49715;42.386;20.434;2022-11-15T04:00:41;82.85;;;52.35;;
63567;SDS011;49715;42.386;20.434;2022-11-15T04:03:25;78.05;;;52.65;;
63567;SDS011;49715;42.386;20.434;2022-11-15T04:06:10;82.28;;;54.55;;
63567;SDS011;49715;42.386;20.434;2022-11-15T04:08:56;83.85;;;53.08;;
63567;SDS011;49715;42.386;20.434;2022-11-15T04:11:40;96.07;;;58.70;;
63567;SDS011;49715;42.386;20.434;2022-11-15T04:14:25;86.63;;;55.22;;
63567;SDS011;49715;42.386;20.434;2022-11-15T04:17:10;80.75;;;51.85;;
63567;SDS011;49715;42.386;20.434;2022-11-15T04:19:55;80.93;;;50.78;;
63567;SDS011;49715;42.386;20.434;2022-11-15T04:22:59;67.00;;;46.08;;
63567;SDS011;49715;42.386;20.434;2022-11-15T04:26:05;65.28;;;44.45;;
63567;SDS011;49715;42.386;20.434;2022-11-15T04:28:54;68.05;;;43.55;;
63567;SDS011;49715;42.386;20.434;2022-11-15T04:32:00;67.57;;;47.50;;
63567;SDS011;49715;42.386;20.434;2022-11-15T04:34:49;71.10;;;47.67;;
63567;SDS011;49715;42.386;20.434;2022-11-15T04:37:34;58.42;;;40.28;;
63567;SDS011;49715;42.386;20.434;2022-11-15T04:40:19;59.03;;;37.53;;
63567;SDS011;49715;42.386;20.434;2022-11-15T04:43:04;61.53;;;37.13;;
63567;SDS011;49715;42.386;20.434;2022-11-15T04:45:48;50.00;;;34.95;;
63567;SDS011;49715;42.386;20.434;2022-11-15T04:48:33;56.38;;;34.80;;
63567;SDS011;49715;42.386;20.434;2022-11-15T04:51:18;52.42;;;33.85;;
63567;SDS011;49715;42.386;20.434;2022-11-15T04:54:03;49.05;;;33.45;;
63567;SDS011;49715;42.386;20.434;2022-11-15T04:56:48;46.90;;;31.63;;
63567;SDS011;49715;42.386;20.434;2022-11-15T04:59:33;53.65;;;33.00;;
63567;SDS011;49715;42.386;20.434;2022-11-15T05:02:18;46.35;;;32.15;;
63567;SDS011;49715;42.386;20.434;2022-11-15T05:05:03;54.67;;;33.28;;
63567;SDS011;49715;42.386;20.434;2022-11-15T05:07:48;49.35;;;32.90;;
63567;SDS011;49715;42.386;20.434;2022-11-15T05:10:33;49.53;;;34.80;;
63567;SDS011;49715;42.386;20.434;2022-11-15T05:13:18;55.72;;;32.58;;
63567;SDS011;49715;42.386;20.434;2022-11-15T05:16:03;54.88;;;34.63;;
63567;SDS011;49715;42.386;20.434;2022-11-15T05:18:52;60.40;;;35.70;;
63567;SDS011;49715;42.386;20.434;2022-11-15T05:21:38;56.30;;;37.22;;
63567;SDS011;49715;42.386;20.434;2022-11-15T05:24:23;55.60;;;34.47;;
63567;SDS011;49715;42.386;20.434;2022-11-15T05:27:09;54.38;;;36.15;;
63567;SDS011;49715;42.386;20.434;2022-11-15T05:29:54;60.53;;;39.55;;
63567;SDS011;49715;42.386;20.434;2022-11-15T05:32:39;57.83;;;39.75;;
63567;SDS011;49715;42.386;20.434;2022-11-15T05:35:34;66.15;;;40.80;;
63567;SDS011;49715;42.386;20.434;2022-11-15T05:38:25;65.88;;;40.45;;
63567;SDS011;49715;42.386;20.434;2022-11-15T05:41:10;57.53;;;38.92;;
63567;SDS011;49715;42.386;20.434;2022-11-15T05:43:56;59.67;;;39.55;;
63567;SDS011;49715;42.386;20.434;2022-11-15T05:46:44;61.30;;;40.13;;
63567;SDS011;49715;42.386;20.434;2022-11-15T05:49:30;64.45;;;40.85;;
63567;SDS011;49715;42.386;20.434;2022-11-15T05:52:22;67.07;;;43.63;;
63567;SDS011;49715;42.386;20.434;2022-11-15T05:55:12;74.95;;;44.67;;
63567;SDS011;49715;42.386;20.434;2022-11-15T05:57:59;70.82;;;45.05;;
63567;SDS011;49715;42.386;20.434;2022-11-15T06:00:45;76.82;;;46.75;;
63567;SDS011;49715;42.386;20.434;2022-11-15T06:03:30;88.55;;;51.50;;
63567;SDS011;49715;42.386;20.434;2022-11-15T06:06:15;81.28;;;50.15;;
63567;SDS011;49715;42.386;20.434;2022-11-15T06:09:00;86.13;;;49.63;;
63567;SDS011;49715;42.386;20.434;2022-11-15T06:11:46;87.28;;;58.92;;
63567;SDS011;49715;42.386;20.434;2022-11-15T06:14:31;92.90;;;60.13;;
63567;SDS011;49715;42.386;20.434;2022-11-15T06:17:16;68.93;;;46.90;;
63567;SDS011;49715;42.386;20.434;2022-11-15T06:20:01;77.45;;;44.28;;
63567;SDS011;49715;42.386;20.434;2022-11-15T06:22:46;72.20;;;44.33;;
63567;SDS011;49715;42.386;20.434;2022-11-15T06:25:31;61.70;;;43.40;;
63567;SDS011;49715;42.386;20.434;2022-11-15T06:28:16;58.70;;;42.63;;
63567;SDS011;49715;42.386;20.434;2022-11-15T06:31:04;63.28;;;43.75;;
63567;SDS011;49715;42.386;20.434;2022-11-15T06:33:50;89.53;;;56.45;;
63567;SDS011;49715;42.386;20.434;2022-11-15T06:36:35;78.00;;;52.70;;
63567;SDS011;49715;42.386;20.434;2022-11-15T06:39:22;76.47;;;50.58;;
63567;SDS011;49715;42.386;20.434;2022-11-15T06:42:08;80.45;;;51.78;;
63567;SDS011;49715;42.386;20.434;2022-11-15T06:44:53;92.43;;;55.17;;
63567;SDS011;49715;42.386;20.434;2022-11-15T06:47:45;77.32;;;52.00;;
63567;SDS011;49715;42.386;20.434;2022-11-15T06:50:32;89.32;;;54.80;;
63567;SDS011;49715;42.386;20.434;2022-11-15T06:53:18;89.75;;;59.03;;
63567;SDS011;49715;42.386;20.434;2022-11-15T06:56:04;85.10;;;56.83;;
63567;SDS011;49715;42.386;20.434;2022-11-15T06:58:54;89.93;;;59.20;;
63567;SDS011;49715;42.386;20.434;2022-11-15T07:01:43;93.40;;;56.47;;
63567;SDS011;49715;42.386;20.434;2022-11-15T07:04:31;83.47;;;53.22;;
63567;SDS011;49715;42.386;20.434;2022-11-15T07:07:17;71.38;;;50.40;;
63567;SDS011;49715;42.386;20.434;2022-11-15T07:10:06;72.15;;;51.40;;
63567;SDS011;49715;42.386;20.434;2022-11-15T07:12:54;78.80;;;52.30;;
63567;SDS011;49715;42.386;20.434;2022-11-15T07:15:40;75.53;;;52.10;;
63567;SDS011;49715;42.386;20.434;2022-11-15T07:18:27;86.15;;;54.30;;
63567;SDS011;49715;42.386;20.434;2022-11-15T07:21:12;78.75;;;51.78;;
63567;SDS011;49715;42.386;20.434;2022-11-15T07:23:59;78.72;;;54.58;;
63567;SDS011;49715;42.386;20.434;2022-11-15T07:26:45;78.57;;;51.92;;
63567;SDS011;49715;42.386;20.434;2022-11-15T07:29:30;76.38;;;52.63;;
63567;SDS011;49715;42.386;20.434;2022-11-15T07:32:14;91.35;;;59.35;;
63567;SDS011;49715;42.386;20.434;2022-11-15T07:35:05;88.63;;;55.88;;
63567;SDS011;49715;42.386;20.434;2022-11-15T07:37:58;82.15;;;55.92;;
63567;SDS011;49715;42.386;20.434;2022-11-15T07:40:46;66.47;;;46.42;;
63567;SDS011;49715;42.386;20.434;2022-11-15T07:43:35;69.78;;;48.60;;
63567;SDS011;49715;42.386;20.434;2022-11-15T07:46:23;73.78;;;49.40;;
63567;SDS011;49715;42.386;20.434;2022-11-15T07:49:09;64.18;;;44.97;;
63567;SDS011;49715;42.386;20.434;2022-11-15T07:51:55;57.50;;;43.17;;
63567;SDS011;49715;42.386;20.434;2022-11-15T07:54:44;65.10;;;42.85;;
63567;SDS011;49715;42.386;20.434;2022-11-15T07:57:29;61.30;;;43.60;;
63567;SDS011;49715;42.386;20.434;2022-11-15T08:00:15;66.07;;;46.13;;
63567;SDS011;49715;42.386;20.434;2022-11-15T08:03:05;64.57;;;46.97;;
63567;SDS011;49715;42.386;20.434;2022-11-15T08:05:51;98.13;;;62.47;;
63567;SDS011;49715;42.386;20.434;2022-11-15T08:08:37;65.95;;;45.28;;
63567;SDS011;49715;42.386;20.434;2022-11-15T08:11:25;64.13;;;44.97;;
63567;SDS011;49715;42.386;20.434;2022-11-15T08:14:32;61.17;;;43.42;;
63567;SDS011;49715;42.386;20.434;2022-11-15T08:17:17;64.60;;;43.33;;
63567;SDS011;49715;42.386;20.434;2022-11-15T08:20:03;55.53;;;40.47;;
63567;SDS011;49715;42.386;20.434;2022-11-15T08:22:48;65.68;;;45.28;;
63567;SDS011;49715;42.386;20.434;2022-11-15T08:25:33;65.30;;;45.28;;
63567;SDS011;49715;42.386;20.434;2022-11-15T08:28:19;63.55;;;44.53;;
63567;SDS011;49715;42.386;20.434;2022-11-15T08:31:05;65.22;;;45.45;;
63567;SDS011;49715;42.386;20.434;2022-11-15T08:33:51;64.60;;;45.60;;
63567;SDS011;49715;42.386;20.434;2022-11-15T08:36:36;63.90;;;47.17;;
63567;SDS011;49715;42.386;20.434;2022-11-15T08:39:23;66.07;;;45.42;;
63567;SDS011;49715;42.386;20.434;2022-11-15T08:42:11;67.85;;;47.58;;
63567;SDS011;49715;42.386;20.434;2022-11-15T08:44:58;89.85;;;60.83;;
63567;SDS011;49715;42.386;20.434;2022-11-15T08:47:45;60.40;;;44.38;;
63567;SDS011;49715;42.386;20.434;2022-11-15T08:50:31;72.50;;;48.58;;
63567;SDS011;49715;42.386;20.434;2022-11-15T08:53:16;73.90;;;49.97;;
63567;SDS011;49715;42.386;20.434;2022-11-15T08:56:01;69.35;;;45.22;;
63567;SDS011;49715;42.386;20.434;2022-11-15T08:58:47;65.75;;;47.33;;
63567;SDS011;49715;42.386;20.434;2022-11-15T09:01:34;73.22;;;47.25;;
63567;SDS011;49715;42.386;20.434;2022-11-15T09:04:21;72.70;;;46.30;;
63567;SDS011;49715;42.386;20.434;2022-11-15T09:09:51;67.15;;;45.70;;
63567;SDS011;49715;42.386;20.434;2022-11-15T09:12:36;75.47;;;49.15;;
63567;SDS011;49715;42.386;20.434;2022-11-15T09:15:25;69.50;;;46.10;;
63567;SDS011;49715;42.386;20.434;2022-11-15T09:18:10;61.33;;;44.85;;
63567;SDS011;49715;42.386;20.434;2022-11-15T09:20:55;71.60;;;47.08;;
63567;SDS011;49715;42.386;20.434;2022-11-15T09:23:46;68.32;;;46.10;;
63567;SDS011;49715;42.386;20.434;2022-11-15T09:26:34;71.97;;;46.03;;
63567;SDS011;49715;42.386;20.434;2022-11-15T09:29:20;69.97;;;48.55;;
63567;SDS011;49715;42.386;20.434;2022-11-15T09:32:15;70.95;;;47.83;;
63567;SDS011;49715;42.386;20.434;2022-11-15T09:35:01;71.95;;;47.33;;
63567;SDS011;49715;42.386;20.434;2022-11-15T09:37:46;72.63;;;48.22;;
63567;SDS011;49715;42.386;20.434;2022-11-15T09:40:35;74.80;;;50.05;;
63567;SDS011;49715;42.386;20.434;2022-11-15T09:43:27;71.60;;;47.47;;
63567;SDS011;49715;42.386;20.434;2022-11-15T09:49:36;75.53;;;49.70;;
63567;SDS011;49715;42.386;20.434;2022-11-15T09:52:15;81.15;;;52.67;;
63567;SDS011;49715;42.386;20.434;2022-11-15T09:55:14;70.63;;;48.55;;
63567;SDS011;49715;42.386;20.434;2022-11-15T09:58:05;78.43;;;51.50;;
63567;SDS011;49715;42.386;20.434;2022-11-15T10:00:44;72.07;;;48.55;;
63567;SDS011;49715;42.386;20.434;2022-11-15T10:03:15;78.07;;;49.03;;
63567;SDS011;49715;42.386;20.434;2022-11-15T10:06:15;71.68;;;47.25;;
63567;SDS011;49715;42.386;20.434;2022-11-15T10:09:11;70.97;;;47.53;;
63567;SDS011;49715;42.386;20.434;2022-11-15T10:12:37;62.90;;;42.97;;
63567;SDS011;49715;42.386;20.434;2022-11-15T10:18:29;61.47;;;44.05;;
63567;SDS011;49715;42.386;20.434;2022-11-15T10:21:17;63.08;;;43.22;;
63567;SDS011;49715;42.386;20.434;2022-11-15T10:23:46;63.83;;;43.97;;
63567;SDS011;49715;42.386;20.434;2022-11-15T10:26:15;55.80;;;41.00;;
63567;SDS011;49715;42.386;20.434;2022-11-15T10:28:44;58.28;;;41.95;;
63567;SDS011;49715;42.386;20.434;2022-11-15T10:33:59;51.85;;;38.78;;
63567;SDS011;49715;42.386;20.434;2022-11-15T10:36:57;56.22;;;39.65;;
63567;SDS011;49715;42.386;20.434;2022-11-15T10:39:25;50.78;;;36.05;;
63567;SDS011;49715;42.386;20.434;2022-11-15T10:42:22;56.78;;;38.70;;
63567;SDS011;49715;42.386;20.434;2022-11-15T10:44:52;55.22;;;37.35;;
63567;SDS011;49715;42.386;20.434;2022-11-15T10:49:59;48.78;;;36.83;;
63567;SDS011;49715;42.386;20.434;2022-11-15T10:52:28;54.55;;;37.13;;
63567;SDS011;49715;42.386;20.434;2022-11-15T10:55:32;44.40;;;34.50;;
63567;SDS011;49715;42.386;20.434;2022-11-15T10:58:05;45.38;;;33.78;;
63567;SDS011;49715;42.386;20.434;2022-11-15T11:04:04;45.92;;;34.38;;
63567;SDS011;49715;42.386;20.434;2022-11-15T11:06:50;47.28;;;33.88;;
63567;SDS011;49715;42.386;20.434;2022-11-15T11:10:22;40.47;;;31.25;;
63567;SDS011;49715;42.386;20.434;2022-11-15T11:12:55;43.15;;;33.03;;
63567;SDS011;49715;42.386;20.434;2022-11-15T11:15:23;44.28;;;30.75;;
63567;SDS011;49715;42.386;20.434;2022-11-15T11:18:13;42.33;;;32.97;;
63567;SDS011;49715;42.386;20.434;2022-11-15T11:20:58;43.80;;;32.25;;
63567;SDS011;49715;42.386;20.434;2022-11-15T11:24:28;45.22;;;33.63;;
63567;SDS011;49715;42.386;20.434;2022-11-15T11:27:09;43.58;;;32.38;;
63567;SDS011;49715;42.386;20.434;2022-11-15T11:33:24;45.83;;;32.55;;
63567;SDS011;49715;42.386;20.434;2022-11-15T11:38:42;54.95;;;35.13;;
63567;SDS011;49715;42.386;20.434;2022-11-15T11:48:03;47.40;;;34.15;;
63567;SDS011;49715;42.386;20.434;2022-11-15T11:50:36;47.95;;;36.10;;
63567;SDS011;49715;42.386;20.434;2022-11-15T11:53:10;58.72;;;41.10;;
63567;SDS011;49715;42.386;20.434;2022-11-15T11:56:04;60.83;;;41.35;;
63567;SDS011;49715;42.386;20.434;2022-11-15T11:59:07;56.05;;;41.63;;
63567;SDS011;49715;42.386;20.434;2022-11-15T12:02:35;57.67;;;41.50;;
63567;SDS011;49715;42.386;20.434;2022-11-15T12:05:22;55.78;;;41.67;;
63567;SDS011;49715;42.386;20.434;2022-11-15T12:11:22;49.75;;;36.88;;
63567;SDS011;49715;42.386;20.434;2022-11-15T12:14:00;53.25;;;37.17;;
63567;SDS011;49715;42.386;20.434;2022-11-15T12:16:40;47.78;;;35.85;;
63567;SDS011;49715;42.386;20.434;2022-11-15T12:19:08;46.75;;;36.28;;
63567;SDS011;49715;42.386;20.434;2022-11-15T12:21:45;42.92;;;33.35;;
63567;SDS011;49715;42.386;20.434;2022-11-15T12:30:31;47.40;;;33.03;;
63567;SDS011;49715;42.386;20.434;2022-11-15T12:36:04;37.95;;;31.20;;
63567;SDS011;49715;42.386;20.434;2022-11-15T12:41:25;47.85;;;30.52;;
63567;SDS011;49715;42.386;20.434;2022-11-15T12:43:57;54.95;;;34.65;;
63567;SDS011;49715;42.386;20.434;2022-11-15T12:49:02;46.15;;;33.03;;
63567;SDS011;49715;42.386;20.434;2022-11-15T12:57:32;38.88;;;27.88;;
63567;SDS011;49715;42.386;20.434;2022-11-15T13:06:48;45.03;;;32.38;;
63567;SDS011;49715;42.386;20.434;2022-11-15T13:12:11;48.17;;;33.15;;
63567;SDS011;49715;42.386;20.434;2022-11-15T13:14:58;47.65;;;29.50;;
63567;SDS011;49715;42.386;20.434;2022-11-15T13:17:26;43.92;;;28.92;;
63567;SDS011;49715;42.386;20.434;2022-11-15T13:30:58;55.95;;;38.40;;
63567;SDS011;49715;42.386;20.434;2022-11-15T13:33:48;51.15;;;38.60;;
63567;SDS011;49715;42.386;20.434;2022-11-15T13:36:22;52.28;;;38.47;;
63567;SDS011;49715;42.386;20.434;2022-11-15T13:38:59;56.85;;;37.47;;
63567;SDS011;49715;42.386;20.434;2022-11-15T13:41:32;53.58;;;36.85;;
63567;SDS011;49715;42.386;20.434;2022-11-15T13:44:01;49.17;;;35.28;;
63567;SDS011;49715;42.386;20.434;2022-11-15T13:46:33;49.10;;;36.67;;
63567;SDS011;49715;42.386;20.434;2022-11-15T13:49:03;54.30;;;36.83;;
63567;SDS011;49715;42.386;20.434;2022-11-15T13:56:40;48.10;;;31.55;;
63567;SDS011;49715;42.386;20.434;2022-11-15T13:59:15;44.85;;;30.60;;
63567;SDS011;49715;42.386;20.434;2022-11-15T14:01:52;41.22;;;29.40;;
63567;SDS011;49715;42.386;20.434;2022-11-15T14:04:22;41.75;;;27.38;;
63567;SDS011;49715;42.386;20.434;2022-11-15T14:06:52;37.22;;;26.35;;
63567;SDS011;49715;42.386;20.434;2022-11-15T14:09:31;35.10;;;25.13;;
63567;SDS011;49715;42.386;20.434;2022-11-15T14:12:25;33.40;;;23.25;;
63567;SDS011;49715;42.386;20.434;2022-11-15T14:15:00;30.35;;;22.50;;
63567;SDS011;49715;42.386;20.434;2022-11-15T14:17:45;34.28;;;24.13;;
63567;SDS011;49715;42.386;20.434;2022-11-15T14:20:25;33.80;;;24.52;;
63567;SDS011;49715;42.386;20.434;2022-11-15T14:22:55;34.65;;;23.40;;
63567;SDS011;49715;42.386;20.434;2022-11-15T14:25:27;36.55;;;25.25;;
63567;SDS011;49715;42.386;20.434;2022-11-15T14:30:55;40.75;;;27.65;;
63567;SDS011;49715;42.386;20.434;2022-11-15T14:33:30;40.38;;;28.02;;
63567;SDS011;49715;42.386;20.434;2022-11-15T14:36:20;36.63;;;27.98;;
63567;SDS011;49715;42.386;20.434;2022-11-15T14:38:47;43.03;;;30.88;;
63567;SDS011;49715;42.386;20.434;2022-11-15T14:43:42;41.20;;;31.20;;
63567;SDS011;49715;42.386;20.434;2022-11-15T14:46:08;46.05;;;32.28;;
63567;SDS011;49715;42.386;20.434;2022-11-15T14:48:35;45.58;;;31.05;;
63567;SDS011;49715;42.386;20.434;2022-11-15T14:51:08;51.67;;;34.25;;
63567;SDS011;49715;42.386;20.434;2022-11-15T14:53:38;46.90;;;32.50;;
63567;SDS011;49715;42.386;20.434;2022-11-15T14:56:05;51.78;;;35.65;;
63567;SDS011;49715;42.386;20.434;2022-11-15T14:58:31;67.93;;;43.53;;
63567;SDS011;49715;42.386;20.434;2022-11-15T15:00:58;53.33;;;36.50;;
63567;SDS011;49715;42.386;20.434;2022-11-15T15:03:26;57.53;;;36.85;;
63567;SDS011;49715;42.386;20.434;2022-11-15T15:05:53;48.58;;;33.22;;
63567;SDS011;49715;42.386;20.434;2022-11-15T15:08:22;38.83;;;24.90;;
63567;SDS011;49715;42.386;20.434;2022-11-15T15:10:50;42.97;;;26.58;;
63567;SDS011;49715;42.386;20.434;2022-11-15T15:13:22;33.88;;;21.92;;
63567;SDS011;49715;42.386;20.434;2022-11-15T15:15:51;18.58;;;11.95;;
63567;SDS011;49715;42.386;20.434;2022-11-15T15:18:19;16.70;;;10.20;;
63567;SDS011;49715;42.386;20.434;2022-11-15T15:20:47;13.00;;;8.32;;
63567;SDS011;49715;42.386;20.434;2022-11-15T15:23:22;11.93;;;9.23;;
63567;SDS011;49715;42.386;20.434;2022-11-15T15:25:50;10.82;;;8.63;;
63567;SDS011;49715;42.386;20.434;2022-11-15T15:28:18;10.30;;;8.55;;
63567;SDS011;49715;42.386;20.434;2022-11-15T15:30:46;12.55;;;8.07;;
63567;SDS011;49715;42.386;20.434;2022-11-15T15:33:12;15.00;;;7.60;;
63567;SDS011;49715;42.386;20.434;2022-11-15T15:35:41;14.82;;;10.43;;
63567;SDS011;49715;42.386;20.434;2022-11-15T15:38:11;11.82;;;8.88;;
63567;SDS011;49715;42.386;20.434;2022-11-15T15:40:54;11.48;;;8.88;;
63567;SDS011;49715;42.386;20.434;2022-11-15T15:43:23;11.00;;;8.95;;
63567;SDS011;49715;42.386;20.434;2022-11-15T15:45:49;9.27;;;7.18;;
63567;SDS011;49715;42.386;20.434;2022-11-15T15:48:17;10.65;;;8.10;;
63567;SDS011;49715;42.386;20.434;2022-11-15T15:50:43;11.10;;;6.68;;
63567;SDS011;49715;42.386;20.434;2022-11-15T15:53:12;11.15;;;5.63;;
63567;SDS011;49715;42.386;20.434;2022-11-15T15:55:42;7.57;;;4.25;;
63567;SDS011;49715;42.386;20.434;2022-11-15T15:58:13;8.98;;;4.00;;
63567;SDS011;49715;42.386;20.434;2022-11-15T16:00:48;5.22;;;3.92;;
63567;SDS011;49715;42.386;20.434;2022-11-15T16:03:14;6.28;;;4.90;;
63567;SDS011;49715;42.386;20.434;2022-11-15T16:05:41;8.60;;;4.82;;
63567;SDS011;49715;42.386;20.434;2022-11-15T16:08:28;9.00;;;5.82;;
63567;SDS011;49715;42.386;20.434;2022-11-15T16:10:56;8.65;;;5.18;;
63567;SDS011;49715;42.386;20.434;2022-11-15T16:13:29;7.00;;;5.15;;
63567;SDS011;49715;42.386;20.434;2022-11-15T16:16:00;8.23;;;6.28;;
63567;SDS011;49715;42.386;20.434;2022-11-15T16:18:27;8.55;;;5.95;;
63567;SDS011;49715;42.386;20.434;2022-11-15T16:20:55;7.65;;;4.93;;
63567;SDS011;49715;42.386;20.434;2022-11-15T16:23:22;8.25;;;5.07;;
63567;SDS011;49715;42.386;20.434;2022-11-15T16:25:55;11.48;;;5.30;;
63567;SDS011;49715;42.386;20.434;2022-11-15T16:28:23;10.68;;;4.85;;
63567;SDS011;49715;42.386;20.434;2022-11-15T16:31:06;8.00;;;4.78;;
63567;SDS011;49715;42.386;20.434;2022-11-15T16:33:36;7.53;;;4.60;;
63567;SDS011;49715;42.386;20.434;2022-11-15T16:36:05;6.28;;;4.10;;
63567;SDS011;49715;42.386;20.434;2022-11-15T16:38:45;7.22;;;3.40;;
63567;SDS011;49715;42.386;20.434;2022-11-15T16:41:12;6.43;;;4.15;;
63567;SDS011;49715;42.386;20.434;2022-11-15T16:43:41;12.18;;;3.83;;
63567;SDS011;49715;42.386;20.434;2022-11-15T16:46:17;5.55;;;3.03;;
63567;SDS011;49715;42.386;20.434;2022-11-15T16:48:45;3.22;;;2.80;;
63567;SDS011;49715;42.386;20.434;2022-11-15T16:51:47;4.03;;;2.83;;
63567;SDS011;49715;42.386;20.434;2022-11-15T16:54:23;5.15;;;2.78;;
63567;SDS011;49715;42.386;20.434;2022-11-15T16:59:47;5.68;;;3.45;;
63567;SDS011;49715;42.386;20.434;2022-11-15T17:02:13;6.25;;;3.90;;
63567;SDS011;49715;42.386;20.434;2022-11-15T17:04:40;3.85;;;3.10;;
63567;SDS011;49715;42.386;20.434;2022-11-15T17:07:06;9.35;;;5.57;;
63567;SDS011;49715;42.386;20.434;2022-11-15T17:09:33;6.30;;;3.63;;
63567;SDS011;49715;42.386;20.434;2022-11-15T17:11:59;4.10;;;3.10;;
63567;SDS011;49715;42.386;20.434;2022-11-15T17:14:26;4.65;;;3.22;;
63567;SDS011;49715;42.386;20.434;2022-11-15T17:16:52;4.57;;;3.33;;
63567;SDS011;49715;42.386;20.434;2022-11-15T17:19:20;5.78;;;3.08;;
63567;SDS011;49715;42.386;20.434;2022-11-15T17:21:46;4.25;;;2.70;;
63567;SDS011;49715;42.386;20.434;2022-11-15T17:24:17;5.13;;;3.10;;
63567;SDS011;49715;42.386;20.434;2022-11-15T17:26:47;7.70;;;2.38;;
63567;SDS011;49715;42.386;20.434;2022-11-15T17:29:13;3.75;;;2.90;;
63567;SDS011;49715;42.386;20.434;2022-11-15T17:31:39;7.22;;;4.00;;
63567;SDS011;49715;42.386;20.434;2022-11-15T17:34:06;4.37;;;2.93;;
63567;SDS011;49715;42.386;20.434;2022-11-15T17:36:32;4.00;;;2.78;;
63567;SDS011;49715;42.386;20.434;2022-11-15T17:38:59;4.68;;;2.50;;
63567;SDS011;49715;42.386;20.434;2022-11-15T17:41:26;4.28;;;3.42;;
63567;SDS011;49715;42.386;20.434;2022-11-15T17:43:57;6.00;;;3.30;;
63567;SDS011;49715;42.386;20.434;2022-11-15T17:46:25;5.07;;;3.53;;
63567;SDS011;49715;42.386;20.434;2022-11-15T17:48:52;6.95;;;3.92;;
63567;SDS011;49715;42.386;20.434;2022-11-15T17:51:20;5.05;;;3.25;;
63567;SDS011;49715;42.386;20.434;2022-11-15T17:53:48;4.05;;;3.40;;